Time;durP1;ratioP1;P1;durP2;ratioP2;P2;SDS_P1;SDS_P2;PMS_P1;PMS_P2;Temp;Humidity;BMP_temperature;BMP_pressure;BME280_temperature;BME280_humidity;BME280_pressure;Samples;Min_cycle;Max_cycle;Signal;HPM_P1;HPM_P2
2023/09/02 00:00:59;;;;;;;54.73;30.10;;;16.10;99.90;;;;;;5073596;28;20495;-63
2023/09/02 00:03:26;;;;;;;49.03;31.20;;;16.10;99.90;;;;;;5071203;28;20759;-63
2023/09/02 00:05:55;;;;;;;49.07;28.57;;;16.10;99.90;;;;;;5068440;28;20467;-63
2023/09/02 00:08:24;;;;;;;64.17;32.50;;;16.10;99.90;;;;;;5073344;28;20463;-62
2023/09/02 00:10:53;;;;;;;52.07;34.03;;;16.00;99.90;;;;;;5073660;28;20477;-60
2023/09/02 00:13:19;;;;;;;52.20;33.10;;;16.00;99.90;;;;;;5073290;28;20538;-59
2023/09/02 00:15:46;;;;;;;51.47;33.70;;;16.00;99.90;;;;;;5073771;28;20459;-62
2023/09/02 00:18:13;;;;;;;51.80;31.37;;;16.00;99.90;;;;;;5073304;28;20434;-61
2023/09/02 00:20:40;;;;;;;54.43;32.73;;;16.00;99.90;;;;;;5073691;28;20459;-63
2023/09/02 00:23:07;;;;;;;45.80;31.57;;;16.10;99.90;;;;;;5074528;28;20435;-62
2023/09/02 00:25:34;;;;;;;55.17;32.40;;;16.10;99.90;;;;;;5073925;28;20477;-59
2023/09/02 00:28:02;;;;;;;57.03;32.40;;;16.10;99.90;;;;;;5074326;28;20467;-59
2023/09/02 00:30:29;;;;;;;53.50;31.67;;;16.10;99.90;;;;;;5074441;28;20459;-59
2023/09/02 00:32:56;;;;;;;47.40;33.20;;;16.10;99.90;;;;;;5073887;28;20487;-57
2023/09/02 00:35:23;;;;;;;50.40;33.37;;;16.00;99.90;;;;;;5074451;28;20471;-58
2023/09/02 00:37:53;;;;;;;50.93;31.77;;;16.00;99.90;;;;;;5074089;28;20454;-62
2023/09/02 00:40:22;;;;;;;50.57;32.13;;;16.00;99.90;;;;;;5074387;28;20474;-63
2023/09/02 00:42:50;;;;;;;45.90;33.13;;;16.00;99.90;;;;;;5073843;28;20462;-61
2023/09/02 00:45:21;;;;;;;46.53;28.90;;;16.00;99.90;;;;;;5074190;28;20454;-60
2023/09/02 00:47:49;;;;;;;49.30;30.03;;;16.00;99.90;;;;;;5074346;28;20475;-62
2023/09/02 00:50:16;;;;;;;53.73;28.93;;;16.00;99.90;;;;;;5077002;28;20446;-63
2023/09/02 00:52:44;;;;;;;59.80;30.20;;;16.00;99.90;;;;;;5078630;28;20555;-59
2023/09/02 00:55:11;;;;;;;47.73;29.40;;;16.00;99.90;;;;;;5079324;28;20479;-57
2023/09/02 00:58:06;;;;;;;39.73;25.90;;;16.10;99.90;;;;;;5079162;28;20502;-59
2023/09/02 01:00:37;;;;;;;38.40;25.33;;;16.00;99.90;;;;;;5079719;28;20467;-59
2023/09/02 01:03:04;;;;;;;38.30;25.47;;;16.00;99.90;;;;;;5080261;28;20396;-63
2023/09/02 01:05:35;;;;;;;39.10;25.77;;;16.00;99.90;;;;;;5080321;28;20478;-60
2023/09/02 01:08:05;;;;;;;34.10;23.30;;;15.90;99.90;;;;;;5078919;28;20816;-58
2023/09/02 01:10:37;;;;;;;39.67;24.50;;;15.90;99.90;;;;;;5078697;28;20419;-59
2023/09/02 01:13:04;;;;;;;37.90;22.93;;;15.90;99.90;;;;;;5078872;28;20497;-59
2023/09/02 01:15:32;;;;;;;37.50;21.80;;;15.90;99.90;;;;;;5078994;28;20420;-60
2023/09/02 01:18:01;;;;;;;37.53;25.33;;;15.80;99.90;;;;;;5078250;28;20467;-60
2023/09/02 01:21:05;;;;;;;31.23;21.03;;;15.90;99.90;;;;;;5078678;28;20474;-61
2023/09/02 01:24:04;;;;;;;27.43;20.13;;;15.90;99.90;;;;;;5078795;28;20399;-61
2023/09/02 01:26:59;;;;;;;29.57;20.80;;;15.80;99.90;;;;;;5078924;28;20463;-58
2023/09/02 01:29:28;;;;;;;26.10;19.93;;;15.80;99.90;;;;;;5078826;28;20424;-55
2023/09/02 01:31:55;;;;;;;34.30;19.73;;;15.70;99.90;;;;;;5078706;28;20541;-61
2023/09/02 01:34:23;;;;;;;26.40;19.43;;;15.70;99.90;;;;;;5078461;28;20463;-62
2023/09/02 01:36:53;;;;;;;32.33;18.43;;;15.70;99.90;;;;;;5078256;28;20427;-62
2023/09/02 01:39:23;;;;;;;24.80;17.57;;;15.70;99.90;;;;;;5078952;28;20435;-56
2023/09/02 01:41:52;;;;;;;26.03;17.50;;;15.70;99.90;;;;;;5078575;28;20470;-62
2023/09/02 01:44:20;;;;;;;27.20;18.87;;;15.70;99.90;;;;;;5078199;28;20518;-61
2023/09/02 01:46:52;;;;;;;34.60;21.80;;;15.70;99.90;;;;;;5078141;28;20459;-62
2023/09/02 01:49:19;;;;;;;28.27;18.50;;;15.70;99.90;;;;;;5078254;28;20443;-60
2023/09/02 01:51:47;;;;;;;21.93;15.53;;;15.70;99.90;;;;;;5078678;28;20435;-57
2023/09/02 01:54:14;;;;;;;25.03;15.97;;;15.60;99.90;;;;;;5078713;28;20530;-61
2023/09/02 01:56:41;;;;;;;22.83;15.70;;;15.60;99.90;;;;;;5078343;28;20564;-60
2023/09/02 01:59:12;;;;;;;22.70;15.30;;;15.60;99.90;;;;;;5078219;28;20431;-58
2023/09/02 02:01:39;;;;;;;21.87;16.63;;;15.60;99.90;;;;;;5078216;28;20427;-61
2023/09/02 02:04:11;;;;;;;27.63;15.80;;;15.60;99.90;;;;;;5078365;28;20462;-60
2023/09/02 02:06:40;;;;;;;27.90;15.90;;;15.60;99.90;;;;;;5078636;28;20459;-62
2023/09/02 02:09:14;;;;;;;23.40;15.43;;;15.60;99.90;;;;;;5078148;28;20443;-62
2023/09/02 02:11:41;;;;;;;27.53;15.27;;;15.50;99.90;;;;;;5078455;28;20423;-62
2023/09/02 02:14:09;;;;;;;21.70;14.73;;;15.50;99.90;;;;;;5077796;28;20503;-62
2023/09/02 02:16:36;;;;;;;25.77;15.50;;;15.50;99.90;;;;;;5078411;28;20458;-61
2023/09/02 02:19:03;;;;;;;20.80;15.47;;;15.40;99.90;;;;;;5078150;28;20438;-58
2023/09/02 02:21:33;;;;;;;17.17;13.07;;;15.40;99.90;;;;;;5077757;28;20454;-60
2023/09/02 02:24:00;;;;;;;22.70;13.50;;;15.40;99.90;;;;;;5077640;28;20435;-59
2023/09/02 02:26:30;;;;;;;18.77;13.43;;;15.40;99.90;;;;;;5077523;28;20494;-59
2023/09/02 02:28:57;;;;;;;22.37;13.27;;;16.50;99.90;;;;;;5078241;28;20408;-61
2023/09/02 02:31:25;;;;;;;17.07;12.27;;;15.30;99.90;;;;;;5078439;28;20473;-62
2023/09/02 02:33:52;;;;;;;16.07;12.63;;;15.30;99.90;;;;;;5078374;28;20506;-60
2023/09/02 02:36:19;;;;;;;21.20;12.30;;;15.20;99.90;;;;;;5077613;28;20436;-59
2023/09/02 02:38:46;;;;;;;19.87;13.10;;;15.30;99.90;;;;;;5078081;28;20436;-60
2023/09/02 02:41:13;;;;;;;22.43;14.20;;;15.30;99.90;;;;;;5078143;28;20467;-56
2023/09/02 02:43:40;;;;;;;16.33;12.67;;;15.30;99.90;;;;;;5078433;28;20439;-58
2023/09/02 02:46:06;;;;;;;21.90;14.83;;;15.30;99.90;;;;;;5078170;28;20494;-57
2023/09/02 02:48:35;;;;;;;19.60;13.37;;;15.20;99.90;;;;;;5078454;28;20471;-61
2023/09/02 02:51:02;;;;;;;22.87;13.07;;;15.20;99.90;;;;;;5077803;28;20471;-62
2023/09/02 02:53:28;;;;;;;19.93;12.63;;;15.20;99.90;;;;;;5077729;28;20555;-60
2023/09/02 02:55:55;;;;;;;17.10;13.17;;;15.20;99.90;;;;;;5077732;28;20454;-61
2023/09/02 02:58:23;;;;;;;19.30;13.20;;;15.20;99.90;;;;;;5077573;28;20427;-62
2023/09/02 03:00:50;;;;;;;20.70;14.47;;;15.20;99.90;;;;;;5078472;28;20435;-54
2023/09/02 03:03:20;;;;;;;18.00;12.90;;;15.20;99.90;;;;;;5077659;28;20444;-59
2023/09/02 03:05:49;;;;;;;19.67;14.20;;;15.20;99.90;;;;;;5077746;28;20474;-62
2023/09/02 03:08:16;;;;;;;20.23;12.10;;;15.20;99.90;;;;;;5078066;28;20428;-57
2023/09/02 03:10:42;;;;;;;18.83;11.60;;;15.20;99.90;;;;;;5077665;28;20443;-61
2023/09/02 03:13:09;;;;;;;16.20;12.70;;;15.20;99.90;;;;;;5076158;28;20479;-62
2023/09/02 03:15:36;;;;;;;20.60;12.37;;;15.20;99.90;;;;;;5077359;28;20466;-61
2023/09/02 03:18:04;;;;;;;14.70;11.70;;;15.20;99.90;;;;;;5077426;28;20431;-60
2023/09/02 03:20:31;;;;;;;17.33;13.13;;;15.20;99.90;;;;;;5077501;28;20982;-57
2023/09/02 03:23:00;;;;;;;26.07;12.53;;;15.20;99.90;;;;;;5077867;28;20499;-54
2023/09/02 03:25:30;;;;;;;17.73;10.43;;;15.20;99.90;;;;;;5077181;28;20447;-56
2023/09/02 03:27:57;;;;;;;16.30;11.80;;;15.20;99.90;;;;;;5077195;28;20458;-61
2023/09/02 03:30:25;;;;;;;15.77;11.63;;;15.20;99.90;;;;;;5077332;28;20455;-60
2023/09/02 03:32:52;;;;;;;16.13;11.70;;;14.90;99.90;;;;;;5077048;28;20959;-61
2023/09/02 03:35:19;;;;;;;22.40;11.27;;;15.10;99.90;;;;;;5077398;28;20447;-61
2023/09/02 03:37:46;;;;;;;17.20;9.87;;;15.10;99.90;;;;;;5077600;28;20447;-59
2023/09/02 03:40:15;;;;;;;14.47;11.50;;;15.10;99.90;;;;;;5078105;28;20491;-58
2023/09/02 03:42:42;;;;;;;13.27;10.40;;;15.10;99.90;;;;;;5076426;28;20447;-60
2023/09/02 03:45:10;;;;;;;14.10;10.70;;;15.00;99.90;;;;;;5076695;28;20454;-61
2023/09/02 03:47:39;;;;;;;14.57;9.43;;;15.00;99.90;;;;;;5077093;28;20473;-61
2023/09/02 03:50:07;;;;;;;15.30;10.97;;;15.00;99.90;;;;;;5076612;28;20447;-63
2023/09/02 03:52:36;;;;;;;15.87;10.97;;;15.00;99.90;;;;;;5076673;28;20482;-58
2023/09/02 03:55:03;;;;;;;21.70;11.43;;;15.00;99.90;;;;;;5076679;28;20419;-57
2023/09/02 03:57:32;;;;;;;15.27;11.03;;;15.00;99.90;;;;;;5076834;28;20423;-58
2023/09/02 03:59:59;;;;;;;14.20;10.20;;;15.00;99.90;;;;;;5076798;28;20481;-59
2023/09/02 04:02:29;;;;;;;16.13;12.17;;;14.90;99.90;;;;;;5076592;28;20489;-61
2023/09/02 04:04:56;;;;;;;13.47;10.20;;;15.00;99.90;;;;;;5076938;28;20419;-61
2023/09/02 04:07:23;;;;;;;11.40;9.33;;;14.90;99.90;;;;;;5076849;28;20435;-61
2023/09/02 04:09:50;;;;;;;11.93;9.93;;;14.90;99.90;;;;;;5076102;28;20447;-62
2023/09/02 04:12:17;;;;;;;16.40;11.90;;;14.90;99.90;;;;;;5076505;28;20491;-59
2023/09/02 04:14:45;;;;;;;13.67;9.83;;;14.90;99.90;;;;;;5076479;28;20423;-58
2023/09/02 04:17:13;;;;;;;15.60;11.53;;;14.90;99.90;;;;;;5076264;28;20451;-56
2023/09/02 04:19:40;;;;;;;16.40;11.77;;;14.90;99.90;;;;;;5076056;28;20467;-58
2023/09/02 04:22:09;;;;;;;19.47;10.77;;;14.90;99.90;;;;;;5076042;28;20451;-51
2023/09/02 04:24:35;;;;;;;15.50;11.70;;;14.90;99.90;;;;;;5075670;28;20446;-59
2023/09/02 04:27:02;;;;;;;15.20;10.17;;;14.90;99.90;;;;;;5075871;28;20438;-62
2023/09/02 04:29:29;;;;;;;19.37;11.57;;;14.90;99.90;;;;;;5076259;28;20459;-62
2023/09/02 04:31:59;;;;;;;14.23;11.27;;;14.90;99.90;;;;;;5076042;28;20454;-62
2023/09/02 04:34:27;;;;;;;16.67;10.90;;;14.90;99.90;;;;;;5076444;28;20474;-58
2023/09/02 04:36:55;;;;;;;17.40;11.30;;;14.90;99.90;;;;;;5076041;28;20431;-58
2023/09/02 04:39:22;;;;;;;14.77;10.10;;;14.90;99.90;;;;;;5075812;28;20474;-59
2023/09/02 04:41:49;;;;;;;14.63;10.33;;;14.90;99.90;;;;;;5075735;28;20451;-53
2023/09/02 04:44:17;;;;;;;13.80;10.47;;;14.90;99.90;;;;;;5075898;28;20439;-57
2023/09/02 04:46:44;;;;;;;14.73;10.30;;;15.00;99.90;;;;;;5075814;28;20471;-62
2023/09/02 04:49:13;;;;;;;15.77;11.20;;;15.00;99.90;;;;;;5075957;28;20462;-59
2023/09/02 04:51:40;;;;;;;16.30;10.40;;;15.00;99.90;;;;;;5076549;28;20443;-61
2023/09/02 04:54:07;;;;;;;13.70;11.00;;;15.00;99.90;;;;;;5076349;28;20537;-59
2023/09/02 04:56:33;;;;;;;12.03;9.90;;;15.10;99.90;;;;;;5076416;28;20443;-57
2023/09/02 04:59:02;;;;;;;13.07;9.50;;;15.00;99.90;;;;;;5075831;28;20463;-59
2023/09/02 05:01:29;;;;;;;20.17;10.40;;;15.00;99.90;;;;;;5076156;28;20507;-58
2023/09/02 05:03:56;;;;;;;12.30;9.00;;;15.10;99.90;;;;;;5075740;28;20443;-55
2023/09/02 05:06:24;;;;;;;12.07;10.17;;;15.10;99.90;;;;;;5076242;28;20467;-57
2023/09/02 05:08:54;;;;;;;16.70;10.10;;;15.10;99.90;;;;;;5076140;28;20423;-61
2023/09/02 05:11:21;;;;;;;15.30;9.80;;;15.10;99.90;;;;;;5076131;28;20451;-62
2023/09/02 05:13:48;;;;;;;12.77;9.70;;;15.10;99.90;;;;;;5076608;28;20477;-60
2023/09/02 05:16:15;;;;;;;10.07;8.53;;;15.10;99.90;;;;;;5076556;28;20494;-55
2023/09/02 05:18:42;;;;;;;14.17;11.13;;;15.10;99.90;;;;;;5075782;28;20447;-62
2023/09/02 05:21:09;;;;;;;12.73;9.83;;;15.10;99.90;;;;;;5076144;28;20407;-62
2023/09/02 05:23:38;;;;;;;22.73;11.33;;;15.10;99.90;;;;;;5075503;28;20431;-62
2023/09/02 05:26:05;;;;;;;14.80;10.63;;;15.10;99.90;;;;;;5075673;28;20497;-57
2023/09/02 05:28:32;;;;;;;16.60;10.00;;;15.20;99.90;;;;;;5075723;28;20614;-57
2023/09/02 05:30:59;;;;;;;13.83;10.00;;;15.20;99.90;;;;;;5076256;28;20444;-59
2023/09/02 05:33:26;;;;;;;14.63;10.77;;;15.20;99.90;;;;;;5075531;28;21021;-61
2023/09/02 05:35:55;;;;;;;22.10;10.70;;;15.10;99.90;;;;;;5077526;28;20477;-57
2023/09/02 05:38:22;;;;;;;14.83;10.43;;;15.20;99.90;;;;;;5079366;28;20446;-61
2023/09/02 05:40:52;;;;;;;14.43;9.00;;;15.20;99.90;;;;;;5079444;28;20453;-62
2023/09/02 05:43:21;;;;;;;12.90;10.50;;;15.30;99.90;;;;;;5079767;28;20443;-59
2023/09/02 05:45:49;;;;;;;15.80;11.20;;;15.30;99.90;;;;;;5078888;28;20468;-60
2023/09/02 05:48:16;;;;;;;14.07;11.27;;;15.50;99.90;;;;;;5078942;28;20439;-58
2023/09/02 05:50:43;;;;;;;12.10;9.50;;;15.50;99.90;;;;;;5079214;28;20463;-61
2023/09/02 05:53:14;;;;;;;13.17;10.30;;;15.60;99.90;;;;;;5079059;28;20483;-61
2023/09/02 05:55:41;;;;;;;15.57;9.67;;;15.70;99.90;;;;;;5078699;28;20511;-56
2023/09/02 05:58:12;;;;;;;12.23;10.30;;;15.80;99.90;;;;;;5078153;28;20459;-60
2023/09/02 06:00:38;;;;;;;12.43;8.40;;;15.90;99.90;;;;;;5078351;28;20420;-62
2023/09/02 06:03:06;;;;;;;14.83;9.60;;;15.90;99.90;;;;;;5078114;28;20447;-62
2023/09/02 06:05:32;;;;;;;13.43;8.37;;;16.00;99.90;;;;;;5078055;28;20498;-60
2023/09/02 06:07:59;;;;;;;13.50;10.10;;;16.10;99.90;;;;;;5078034;28;20446;-62
2023/09/02 06:10:26;;;;;;;13.73;9.57;;;16.20;99.90;;;;;;5077828;28;20467;-61
2023/09/02 06:12:53;;;;;;;9.73;7.60;;;16.30;99.90;;;;;;5077842;28;20497;-60
2023/09/02 06:15:21;;;;;;;12.73;8.80;;;16.30;99.90;;;;;;5078482;28;20443;-59
2023/09/02 06:17:48;;;;;;;12.00;8.63;;;16.40;99.90;;;;;;5077844;28;20455;-60
2023/09/02 06:20:16;;;;;;;17.90;9.03;;;16.50;99.90;;;;;;5077464;28;20439;-54
2023/09/02 06:22:43;;;;;;;12.53;10.17;;;16.60;99.90;;;;;;5077591;28;20435;-60
2023/09/02 06:25:10;;;;;;;14.20;10.40;;;16.70;99.90;;;;;;5078317;28;20447;-61
2023/09/02 06:27:44;;;;;;;16.37;10.63;;;16.80;99.90;;;;;;5078540;28;20439;-60
2023/09/02 06:30:13;;;;;;;15.60;11.57;;;16.80;99.90;;;;;;5077435;28;20432;-52
2023/09/02 06:32:42;;;;;;;14.47;10.07;;;16.80;99.90;;;;;;5078115;28;20463;-58
2023/09/02 06:35:12;;;;;;;13.63;9.80;;;16.90;99.90;;;;;;5077411;28;20475;-54
2023/09/02 06:37:38;;;;;;;12.87;10.40;;;16.90;99.90;;;;;;5077465;28;20446;-54
2023/09/02 06:40:06;;;;;;;11.20;10.00;;;17.00;99.90;;;;;;5077183;28;20443;-54
2023/09/02 06:42:33;;;;;;;11.20;9.43;;;17.00;99.90;;;;;;5077120;28;20919;-53
2023/09/02 06:45:00;;;;;;;12.10;9.10;;;17.10;99.90;;;;;;5076703;28;20491;-56
2023/09/02 06:47:29;;;;;;;13.97;10.20;;;17.10;99.90;;;;;;5075232;28;20439;-57
2023/09/02 06:50:00;;;;;;;14.40;11.37;;;17.10;99.90;;;;;;5077144;28;20443;-58
2023/09/02 06:52:27;;;;;;;18.20;10.07;;;17.20;99.90;;;;;;5077523;28;20482;-56
2023/09/02 06:54:54;;;;;;;12.80;11.00;;;17.20;99.90;;;;;;5077019;28;20479;-56
2023/09/02 06:57:21;;;;;;;11.20;9.33;;;17.20;99.90;;;;;;5077461;28;20447;-55
2023/09/02 06:59:47;;;;;;;16.03;10.93;;;17.30;99.90;;;;;;5076448;28;20447;-55
2023/09/02 07:02:14;;;;;;;11.47;9.50;;;17.30;99.90;;;;;;5076465;28;20450;-57
2023/09/02 07:04:41;;;;;;;12.60;10.70;;;17.50;99.90;;;;;;5076157;28;20438;-55
2023/09/02 07:07:09;;;;;;;16.27;9.50;;;17.60;99.90;;;;;;5076167;28;20428;-57
2023/09/02 07:09:36;;;;;;;11.10;9.20;;;17.80;99.90;;;;;;5075992;28;20462;-59
2023/09/02 07:12:04;;;;;;;15.10;10.20;;;17.90;99.90;;;;;;5075655;28;20456;-59
2023/09/02 07:14:31;;;;;;;10.07;9.03;;;18.10;99.90;;;;;;5075288;28;20490;-58
2023/09/02 07:16:58;;;;;;;12.27;9.33;;;18.20;99.90;;;;;;5075722;28;20474;-58
2023/09/02 07:19:25;;;;;;;10.97;8.03;;;18.30;99.90;;;;;;5075563;28;20473;-58
2023/09/02 07:21:52;;;;;;;17.03;9.87;;;18.40;99.90;;;;;;5075428;28;20458;-55
2023/09/02 07:24:20;;;;;;;9.80;8.73;;;18.50;99.90;;;;;;5075022;28;20443;-57
2023/09/02 07:26:47;;;;;;;10.13;9.13;;;18.50;99.90;;;;;;5075285;28;20435;-55
2023/09/02 07:29:14;;;;;;;8.60;7.73;;;18.30;99.90;;;;;;5074814;28;20447;-57
2023/09/02 07:31:41;;;;;;;11.43;8.73;;;18.50;99.90;;;;;;5077088;28;20474;-51
2023/09/02 07:34:08;;;;;;;14.43;8.63;;;18.60;99.90;;;;;;5075054;28;20471;-58
2023/09/02 07:36:34;;;;;;;8.87;7.63;;;18.60;99.90;;;;;;5075167;28;20474;-58
2023/09/02 07:39:03;;;;;;;14.07;9.40;;;18.60;99.90;;;;;;5074803;28;20487;-58
2023/09/02 07:41:31;;;;;;;11.70;9.27;;;18.70;99.90;;;;;;5074649;28;20466;-59
2023/09/02 07:43:58;;;;;;;9.77;8.03;;;18.90;99.90;;;;;;5075091;28;20459;-58
2023/09/02 07:46:25;;;;;;;9.80;8.20;;;18.90;99.90;;;;;;5074844;28;20447;-58
2023/09/02 07:48:52;;;;;;;9.57;7.53;;;19.10;99.90;;;;;;5074619;28;20454;-56
2023/09/02 07:51:19;;;;;;;8.33;7.07;;;19.20;99.90;;;;;;5074697;28;20475;-52
2023/09/02 07:53:46;;;;;;;7.60;6.10;;;19.40;99.90;;;;;;5060242;28;20487;-57
2023/09/02 07:56:13;;;;;;;10.43;6.53;;;19.60;99.90;;;;;;5067339;28;20447;-59
2023/09/02 07:58:43;;;;;;;7.80;6.20;;;19.90;99.90;;;;;;5073990;28;20467;-58
2023/09/02 08:01:10;;;;;;;6.53;5.30;;;20.10;99.90;;;;;;5073658;28;20857;-59
2023/09/02 08:03:37;;;;;;;7.40;4.10;;;20.40;99.90;;;;;;5073856;28;20474;-58
2023/09/02 08:06:06;;;;;;;6.27;4.50;;;20.70;99.90;;;;;;5070063;28;20454;-60
2023/09/02 08:08:33;;;;;;;6.90;3.37;;;21.20;99.90;;;;;;5067177;28;20525;-57
2023/09/02 08:11:04;;;;;;;5.27;3.60;;;21.90;99.90;;;;;;5064637;28;20501;-59
2023/09/02 08:13:30;;;;;;;7.53;3.57;;;22.80;99.90;;;;;;5069551;28;20430;-58
2023/09/02 08:15:59;;;;;;;4.60;3.87;;;23.70;99.90;;;;;;5063873;28;20482;-59
2023/09/02 08:18:26;;;;;;;7.00;4.07;;;24.30;99.90;;;;;;5065311;28;20487;-60
2023/09/02 08:20:53;;;;;;;5.77;3.80;;;24.70;99.90;;;;;;5068102;28;20470;-57
2023/09/02 08:23:20;;;;;;;5.43;3.73;;;25.30;99.90;;;;;;5068501;28;20479;-59
2023/09/02 08:25:47;;;;;;;5.03;3.50;;;26.20;99.90;;;;;;5066943;28;20455;-60
2023/09/02 08:28:13;;;;;;;3.40;3.10;;;27.40;97.40;;;;;;5062652;28;20524;-60
2023/09/02 08:30:44;;;;;;;3.60;2.60;;;28.40;91.60;;;;;;5062286;28;20502;-59
2023/09/02 08:33:12;;;;;;;5.70;3.77;;;28.10;85.60;;;;;;5061768;28;20515;-60
2023/09/02 08:35:39;;;;;;;8.27;3.10;;;30.30;78.30;;;;;;5060903;28;20485;-61
2023/09/02 08:38:06;;;;;;;2.73;2.40;;;31.10;72.40;;;;;;5060429;28;20505;-59
2023/09/02 08:40:33;;;;;;;11.13;3.10;;;31.70;65.90;;;;;;5058582;28;20475;-61
2023/09/02 08:43:02;;;;;;;3.87;3.13;;;32.00;63.40;;;;;;5062059;28;20513;-59
2023/09/02 08:45:30;;;;;;;5.33;2.87;;;32.20;60.80;;;;;;5054368;28;21015;-60
2023/09/02 08:48:01;;;;;;;4.03;2.63;;;32.40;59.60;;;;;;5056919;28;20465;-59
2023/09/02 08:50:31;;;;;;;3.50;3.10;;;32.10;58.70;;;;;;5060192;28;20899;-55
2023/09/02 08:53:02;;;;;;;4.30;3.17;;;32.10;58.20;;;;;;5061898;28;20471;-59
2023/09/02 08:55:33;;;;;;;6.27;3.23;;;31.80;59.10;;;;;;5058033;28;20520;-57
2023/09/02 08:58:00;;;;;;;3.30;2.60;;;31.60;59.00;;;;;;5059867;28;20463;-61
2023/09/02 09:00:27;;;;;;;3.70;2.63;;;31.70;58.40;;;;;;5054663;28;20439;-60
2023/09/02 09:02:55;;;;;;;4.00;3.00;;;31.70;58.40;;;;;;5054090;28;20479;-60
2023/09/02 09:05:22;;;;;;;3.37;2.83;;;31.60;58.00;;;;;;5054170;28;20562;-61
2023/09/02 09:07:51;;;;;;;3.97;2.50;;;31.50;58.50;;;;;;5054394;28;20490;-58
2023/09/02 09:10:21;;;;;;;3.77;2.70;;;31.50;58.80;;;;;;5056042;28;20774;-60
2023/09/02 09:12:51;;;;;;;7.33;2.47;;;31.60;58.40;;;;;;5059034;28;20442;-62
2023/09/02 09:15:18;;;;;;;4.07;2.53;;;31.90;57.10;;;;;;5059525;28;20459;-63
2023/09/02 09:17:45;;;;;;;4.87;3.13;;;31.90;57.20;;;;;;5058762;28;20472;-58
2023/09/02 09:20:14;;;;;;;3.90;2.90;;;32.00;56.40;;;;;;5058469;28;20498;-61
2023/09/02 09:22:41;;;;;;;3.83;2.93;;;31.80;56.40;;;;;;5058580;28;20447;-61
2023/09/02 09:25:10;;;;;;;3.37;2.87;;;31.80;57.10;;;;;;5057797;28;20557;-61
2023/09/02 09:27:37;;;;;;;3.93;2.70;;;31.80;58.80;;;;;;5060212;28;20542;-60
2023/09/02 09:30:04;;;;;;;3.73;3.30;;;32.00;56.30;;;;;;5063284;28;20487;-60
2023/09/02 09:32:31;;;;;;;5.23;4.03;;;32.20;55.50;;;;;;5060809;28;20467;-60
2023/09/02 09:34:58;;;;;;;6.80;2.90;;;32.20;55.80;;;;;;5059488;28;20471;-60
2023/09/02 09:37:25;;;;;;;6.90;3.50;;;32.20;56.00;;;;;;5057454;28;20550;-59
2023/09/02 09:39:53;;;;;;;2.97;2.67;;;31.90;93.90;;;;;;5058895;28;20427;-60
2023/09/02 09:42:34;;;;;;;4.80;3.10;;;32.00;80.50;;;;;;5059380;28;20924;-61
2023/09/02 09:45:03;;;;;;;3.50;2.90;;;31.80;56.20;;;;;;5059592;28;20490;-61
2023/09/02 09:47:30;;;;;;;4.93;2.20;;;31.70;55.80;;;;;;5058179;28;20524;-59
2023/09/02 09:50:12;;;;;;;5.23;3.10;;;31.50;55.80;;;;;;5057441;28;20966;-60
2023/09/02 09:52:39;;;;;;;4.23;3.03;;;31.60;57.20;;;;;;5057541;28;20459;-61
2023/09/02 09:55:07;;;;;;;3.57;2.60;;;31.50;56.70;;;;;;5057569;28;20482;-59
2023/09/02 09:57:37;;;;;;;3.83;2.40;;;31.50;57.30;;;;;;5057620;28;20471;-59
2023/09/02 10:00:07;;;;;;;5.23;2.70;;;31.50;56.70;;;;;;5058171;28;20479;-61
2023/09/02 10:02:34;;;;;;;4.53;2.80;;;;;;;;;;5057890;28;20488;-61
2023/09/02 10:05:03;;;;;;;3.33;2.67;;;31.70;56.00;;;;;;5058925;28;20526;-60
2023/09/02 10:07:31;;;;;;;3.20;2.60;;;31.80;57.00;;;;;;5057203;28;20435;-60
2023/09/02 10:10:00;;;;;;;4.07;3.10;;;32.00;57.00;;;;;;5057118;28;20490;-62
2023/09/02 10:12:33;;;;;;;3.23;2.47;;;31.20;77.10;;;;;;5057401;28;20908;-62
2023/09/02 10:15:02;;;;;;;4.10;2.70;;;31.10;57.70;;;;;;5057427;28;20766;-61
2023/09/02 10:17:30;;;;;;;2.20;2.00;;;30.80;59.50;;;;;;5057612;28;20927;-62
2023/09/02 10:19:57;;;;;;;3.53;2.30;;;30.30;58.50;;;;;;5060747;28;20534;-61
2023/09/02 10:22:29;;;;;;;3.00;2.67;;;28.50;62.20;;;;;;5058670;28;20463;-60
2023/09/02 10:25:01;;;;;;;2.80;2.60;;;27.50;95.90;;;;;;5057560;28;20553;-62
2023/09/02 10:27:32;;;;;;;3.80;3.07;;;27.60;65.90;;;;;;5056838;28;20570;-62
2023/09/02 10:30:02;;;;;;;3.20;2.53;;;27.00;69.20;;;;;;5058302;28;20939;-63
2023/09/02 10:32:38;;;;;;;3.90;2.50;;;25.60;70.70;;;;;;5056425;28;20471;-62
2023/09/02 10:35:11;;;;;;;19.67;15.87;;;25.20;93.80;;;;;;5056798;28;20478;-62
2023/09/02 10:37:45;;;;;;;5.10;3.30;;;25.00;97.00;;;;;;5057492;28;20834;-61
2023/09/02 10:40:20;;;;;;;16.53;10.70;;;24.80;74.40;;;;;;5056326;28;20474;-64
2023/09/02 10:42:49;;;;;;;4.83;2.60;;;24.80;95.00;;;;;;5056344;28;20853;-58
2023/09/02 10:45:18;;;;;;;6.93;2.60;;;24.90;78.40;;;;;;5056391;28;20491;-62
2023/09/02 10:47:45;;;;;;;2.93;2.50;;;25.00;78.70;;;;;;5057547;28;20439;-60
2023/09/02 10:50:13;;;;;;;4.43;3.03;;;25.30;79.20;;;;;;5064493;28;20447;-64
2023/09/02 10:52:40;;;;;;;7.30;2.73;;;25.40;79.30;;;;;;5061083;28;20468;-63
2023/09/02 10:55:08;;;;;;;2.37;2.17;;;25.60;79.20;;;;;;5060380;28;20439;-60
2023/09/02 10:57:45;;;;;;;4.80;3.93;;;25.30;79.40;;;;;;5056700;28;20467;-59
2023/09/02 11:00:14;;;;;;;3.03;2.70;;;25.20;81.60;;;;;;5068258;28;20441;-61
2023/09/02 11:02:43;;;;;;;7.07;3.70;;;25.20;80.90;;;;;;5059354;28;20443;-61
2023/09/02 11:05:10;;;;;;;3.23;2.40;;;25.10;82.20;;;;;;5057574;28;20572;-62
2023/09/02 11:07:39;;;;;;;5.00;2.97;;;25.00;83.10;;;;;;5056839;28;20539;-63
2023/09/02 11:10:07;;;;;;;5.93;2.93;;;24.90;85.40;;;;;;5057838;28;20471;-61
2023/09/02 11:12:55;;;;;;;4.17;3.13;;;24.50;86.70;;;;;;5060003;28;20455;-62
2023/09/02 11:15:22;;;;;;;4.40;2.73;;;24.20;89.20;;;;;;5056147;28;20534;-61
2023/09/02 11:17:50;;;;;;;3.73;2.70;;;24.00;90.90;;;;;;5056188;28;20452;-62
2023/09/02 11:20:19;;;;;;;3.50;2.40;;;23.70;92.50;;;;;;5055542;28;20538;-62
2023/09/02 11:22:54;;;;;;;4.33;2.80;;;23.40;93.30;;;;;;5056504;28;20471;-61
2023/09/02 11:25:41;;;;;;;3.87;2.57;;;23.20;94.00;;;;;;5060136;28;20983;-62
2023/09/02 11:28:09;;;;;;;6.67;2.80;;;23.10;95.80;;;;;;5058315;28;20719;-62
2023/09/02 11:30:38;;;;;;;3.57;2.97;;;23.10;96.90;;;;;;5055723;28;20558;-62
2023/09/02 11:33:07;;;;;;;4.33;2.40;;;23.00;97.80;;;;;;5058674;28;20946;-61
2023/09/02 11:35:37;;;;;;;4.93;2.70;;;22.90;98.90;;;;;;5060881;28;20951;-62
2023/09/02 11:38:17;;;;;;;9.80;3.30;;;22.80;99.70;;;;;;5061067;28;20446;-62
2023/09/02 11:40:44;;;;;;;4.10;2.90;;;22.70;99.90;;;;;;5057890;28;20471;-63
2023/09/02 11:43:18;;;;;;;4.07;2.40;;;22.50;99.90;;;;;;5056209;28;20466;-59
2023/09/02 11:45:46;;;;;;;4.50;3.00;;;22.50;99.90;;;;;;5055639;28;20570;-60
2023/09/02 11:48:14;;;;;;;3.57;2.77;;;22.30;99.90;;;;;;5057602;28;20837;-62
2023/09/02 11:50:41;;;;;;;3.03;2.47;;;22.30;99.90;;;;;;5064336;28;20479;-62
2023/09/02 11:53:08;;;;;;;3.53;2.23;;;22.20;99.90;;;;;;5060434;28;20483;-61
2023/09/02 11:55:39;;;;;;;4.60;3.10;;;22.20;99.90;;;;;;5063605;28;20442;-62
2023/09/02 11:58:10;;;;;;;3.30;2.70;;;22.10;99.90;;;;;;5060359;28;20929;-62
2023/09/02 12:00:42;;;;;;;7.33;3.10;;;22.10;99.90;;;;;;5059921;28;20493;-62
2023/09/02 12:03:09;;;;;;;4.93;3.10;;;22.10;99.90;;;;;;5059975;28;20442;-60
2023/09/02 12:05:46;;;;;;;4.10;2.93;;;22.10;99.90;;;;;;5057914;28;20495;-60
2023/09/02 12:08:13;;;;;;;3.70;3.10;;;22.00;99.90;;;;;;5058763;28;20423;-61
2023/09/02 12:10:40;;;;;;;5.33;3.00;;;22.10;99.90;;;;;;5059246;28;20542;-59
2023/09/02 12:13:09;;;;;;;3.27;2.73;;;22.20;99.90;;;;;;5056190;28;20490;-62
2023/09/02 12:15:36;;;;;;;3.37;3.00;;;22.40;99.90;;;;;;5056147;28;20435;-62
2023/09/02 12:18:03;;;;;;;3.20;2.83;;;22.50;99.90;;;;;;5059565;28;20506;-63
2023/09/02 12:20:30;;;;;;;3.00;2.70;;;22.60;99.90;;;;;;5062522;28;20489;-61
2023/09/02 12:22:59;;;;;;;3.80;2.70;;;22.70;99.90;;;;;;5059339;28;20478;-63
2023/09/02 12:25:27;;;;;;;4.90;2.80;;;22.60;99.90;;;;;;5058195;28;20570;-62
2023/09/02 12:28:09;;;;;;;4.70;3.90;;;22.60;99.90;;;;;;5056413;28;20963;-64
2023/09/02 12:30:36;;;;;;;3.47;2.60;;;22.80;99.90;;;;;;5058902;28;20498;-62
2023/09/02 12:33:07;;;;;;;3.40;2.70;;;23.00;99.90;;;;;;5059278;28;20855;-63
2023/09/02 12:35:33;;;;;;;3.73;2.77;;;23.20;99.90;;;;;;5060476;28;20515;-62
2023/09/02 12:38:03;;;;;;;4.60;2.20;;;23.30;99.90;;;;;;5056122;28;20944;-62
2023/09/02 12:40:30;;;;;;;4.63;3.93;;;23.30;99.90;;;;;;5056699;28;20498;-62
2023/09/02 12:42:58;;;;;;;4.67;2.60;;;23.30;99.90;;;;;;5060003;28;20459;-63